sensor_id;sensor_type;location;lat;lon;timestamp;pressure;altitude;pressure_sealevel;temperature;humidity
75668;BME280;64266;48.798;44.756;2023-03-13T00:03:27;100685.66;;;10.39;69.06
75668;BME280;64266;48.798;44.756;2023-03-13T00:08:30;100808.47;;;11.25;68.54
75668;BME280;64266;48.798;44.756;2023-03-13T00:13:34;100753.44;;;10.96;68.91
75668;BME280;64266;48.798;44.756;2023-03-13T00:18:38;100817.84;;;11.46;69.32
75668;BME280;64266;48.798;44.756;2023-03-13T00:23:41;100800.09;;;11.28;68.75
75668;BME280;64266;48.798;44.756;2023-03-13T00:28:45;100684.69;;;10.58;69.13
75668;BME280;64266;48.798;44.756;2023-03-13T00:33:51;100660.88;;;10.51;69.82
75668;BME280;64266;48.798;44.756;2023-03-13T00:38:57;100707.50;;;10.77;69.85
75668;BME280;64266;48.798;44.756;2023-03-13T00:44:01;100738.47;;;10.83;70.26
75668;BME280;64266;48.798;44.756;2023-03-13T00:49:05;100745.78;;;10.87;70.26
75668;BME280;64266;48.798;44.756;2023-03-13T00:54:08;100724.00;;;10.61;70.14
75668;BME280;64266;48.798;44.756;2023-03-13T00:59:13;100729.84;;;10.69;70.91
75668;BME280;64266;48.798;44.756;2023-03-13T01:04:20;100682.06;;;10.33;70.30
75668;BME280;64266;48.798;44.756;2023-03-13T01:09:24;100767.06;;;10.81;69.81
75668;BME280;64266;48.798;44.756;2023-03-13T01:14:27;100766.88;;;10.58;70.23
75668;BME280;64266;48.798;44.756;2023-03-13T01:19:31;100776.41;;;10.34;70.11
75668;BME280;64266;48.798;44.756;2023-03-13T01:24:34;100842.94;;;10.26;66.40
75668;BME280;64266;48.798;44.756;2023-03-13T01:29:37;100899.47;;;10.07;66.64
75668;BME280;64266;48.798;44.756;2023-03-13T01:34:41;100894.91;;;9.76;65.11
75668;BME280;64266;48.798;44.756;2023-03-13T01:39:44;100962.94;;;9.82;65.56
75668;BME280;64266;48.798;44.756;2023-03-13T01:44:56;100930.63;;;9.34;65.38
75668;BME280;64266;48.798;44.756;2023-03-13T01:50:00;100916.78;;;8.93;65.28
75668;BME280;64266;48.798;44.756;2023-03-13T01:55:36;101023.44;;;9.19;64.70
75668;BME280;64266;48.798;44.756;2023-03-13T02:00:40;100852.31;;;8.00;65.80
75668;BME280;64266;48.798;44.756;2023-03-13T02:05:45;100999.50;;;8.60;65.78
75668;BME280;64266;48.798;44.756;2023-03-13T02:10:55;101017.59;;;8.63;66.65
75668;BME280;64266;48.798;44.756;2023-03-13T02:16:00;101002.22;;;8.33;66.24
75668;BME280;64266;48.798;44.756;2023-03-13T02:21:13;101038.88;;;8.42;66.74
75668;BME280;64266;48.798;44.756;2023-03-13T02:26:18;100980.09;;;7.99;67.31
75668;BME280;64266;48.798;44.756;2023-03-13T02:31:20;100913.91;;;7.39;65.71
75668;BME280;64266;48.798;44.756;2023-03-13T02:36:24;100990.13;;;7.55;65.00
75668;BME280;64266;48.798;44.756;2023-03-13T02:41:28;101003.72;;;7.52;65.42
75668;BME280;64266;48.798;44.756;2023-03-13T02:46:49;101004.09;;;7.49;65.10
75668;BME280;64266;48.798;44.756;2023-03-13T02:52:12;101058.66;;;7.70;64.26
75668;BME280;64266;48.798;44.756;2023-03-13T02:57:17;100953.28;;;6.91;66.00
75668;BME280;64266;48.798;44.756;2023-03-13T03:02:20;101095.94;;;7.60;66.31
75668;BME280;64266;48.798;44.756;2023-03-13T03:07:26;101013.78;;;6.99;65.99
75668;BME280;64266;48.798;44.756;2023-03-13T03:12:30;100998.94;;;6.92;67.01
75668;BME280;64266;48.798;44.756;2023-03-13T03:17:35;101023.81;;;6.89;65.50
75668;BME280;64266;48.798;44.756;2023-03-13T03:22:39;100961.78;;;6.51;65.82
75668;BME280;64266;48.798;44.756;2023-03-13T03:27:42;100993.03;;;6.54;64.59
75668;BME280;64266;48.798;44.756;2023-03-13T03:32:46;101129.00;;;7.35;65.88
75668;BME280;64266;48.798;44.756;2023-03-13T03:37:49;101108.13;;;7.19;65.31
75668;BME280;64266;48.798;44.756;2023-03-13T03:42:53;101149.44;;;7.47;65.66
75668;BME280;64266;48.798;44.756;2023-03-13T03:47:57;101195.16;;;7.76;65.28
75668;BME280;64266;48.798;44.756;2023-03-13T03:53:01;101020.00;;;6.56;64.53
75668;BME280;64266;48.798;44.756;2023-03-13T03:58:05;101202.59;;;7.66;64.78
75668;BME280;64266;48.798;44.756;2023-03-13T04:03:27;101189.19;;;7.46;64.32
75668;BME280;64266;48.798;44.756;2023-03-13T04:08:32;101162.59;;;7.12;64.35
75668;BME280;64266;48.798;44.756;2023-03-13T04:13:35;101248.47;;;7.64;63.93
75668;BME280;64266;48.798;44.756;2023-03-13T04:18:38;101182.34;;;7.16;62.13
75668;BME280;64266;48.798;44.756;2023-03-13T04:23:41;101160.53;;;6.92;61.60
75668;BME280;64266;48.798;44.756;2023-03-13T04:28:46;101298.81;;;7.48;61.86
75668;BME280;64266;48.798;44.756;2023-03-13T04:33:54;101301.94;;;7.37;61.30
75668;BME280;64266;48.798;44.756;2023-03-13T04:39:20;101143.09;;;6.47;61.58
75668;BME280;64266;48.798;44.756;2023-03-13T04:44:45;101317.75;;;7.52;62.86
75668;BME280;64266;48.798;44.756;2023-03-13T04:50:06;101327.22;;;7.46;62.54
75668;BME280;64266;48.798;44.756;2023-03-13T04:55:30;101345.94;;;7.37;60.17
75668;BME280;64266;48.798;44.756;2023-03-13T05:00:56;101313.53;;;6.99;58.78
75668;BME280;64266;48.798;44.756;2023-03-13T05:06:08;101361.78;;;7.22;57.96
75668;BME280;64266;48.798;44.756;2023-03-13T05:11:50;101340.31;;;7.25;57.99
75668;BME280;64266;48.798;44.756;2023-03-13T05:17:20;101343.13;;;7.09;56.56
75668;BME280;64266;48.798;44.756;2023-03-13T05:22:42;101389.53;;;7.33;55.99
75668;BME280;64266;48.798;44.756;2023-03-13T05:27:53;101377.00;;;7.35;56.11
75668;BME280;64266;48.798;44.756;2023-03-13T05:33:17;101404.19;;;7.50;55.26
75668;BME280;64266;48.798;44.756;2023-03-13T05:38:41;101419.38;;;7.48;55.01
75668;BME280;64266;48.798;44.756;2023-03-13T05:44:03;101405.44;;;7.39;55.01
75668;BME280;64266;48.798;44.756;2023-03-13T05:49:30;101428.22;;;7.40;54.70
75668;BME280;64266;48.798;44.756;2023-03-13T05:55:11;101388.19;;;6.99;53.86
75668;BME280;64266;48.798;44.756;2023-03-13T06:00:34;101406.03;;;7.12;52.82
75668;BME280;64266;48.798;44.756;2023-03-13T06:06:00;101445.25;;;7.52;52.34
75668;BME280;64266;48.798;44.756;2023-03-13T06:11:22;101393.53;;;7.43;52.59
75668;BME280;64266;48.798;44.756;2023-03-13T06:16:27;101424.13;;;7.96;50.31
75668;BME280;64266;48.798;44.756;2023-03-13T06:21:51;101447.19;;;8.95;48.81
75668;BME280;64266;48.798;44.756;2023-03-13T06:26:57;101423.72;;;9.35;47.55
75668;BME280;64266;48.798;44.756;2023-03-13T06:31:59;101456.91;;;9.65;47.49
75668;BME280;64266;48.798;44.756;2023-03-13T06:37:02;101482.19;;;9.67;46.44
75668;BME280;64266;48.798;44.756;2023-03-13T06:42:05;101507.00;;;9.39;46.31
75668;BME280;64266;48.798;44.756;2023-03-13T06:47:08;101499.84;;;9.11;46.24
75668;BME280;64266;48.798;44.756;2023-03-13T06:52:15;101456.59;;;8.77;46.99
75668;BME280;64266;48.798;44.756;2023-03-13T06:57:21;101431.69;;;8.71;47.36
75668;BME280;64266;48.798;44.756;2023-03-13T07:02:24;101542.16;;;10.09;44.12
75668;BME280;64266;48.798;44.756;2023-03-13T07:07:28;101495.53;;;10.62;44.08
75668;BME280;64266;48.798;44.756;2023-03-13T07:12:34;101542.41;;;11.29;42.33
75668;BME280;64266;48.798;44.756;2023-03-13T07:17:37;101595.22;;;11.78;42.63
75668;BME280;64266;48.798;44.756;2023-03-13T07:22:40;101571.47;;;11.37;41.04
75668;BME280;64266;48.798;44.756;2023-03-13T07:27:51;101601.41;;;11.11;41.97
75668;BME280;64266;48.798;44.756;2023-03-13T07:32:54;101555.41;;;10.37;41.95
75668;BME280;64266;48.798;44.756;2023-03-13T07:37:57;101610.19;;;10.23;43.14
75668;BME280;64266;48.798;44.756;2023-03-13T07:43:01;101641.34;;;10.15;44.01
75668;BME280;64266;48.798;44.756;2023-03-13T07:48:05;101569.59;;;9.67;42.82
75668;BME280;64266;48.798;44.756;2023-03-13T07:53:11;101639.31;;;10.17;43.01
75668;BME280;64266;48.798;44.756;2023-03-13T07:58:18;101590.72;;;9.61;41.46
75668;BME280;64266;48.798;44.756;2023-03-13T08:03:23;101643.19;;;9.72;41.47
75668;BME280;64266;48.798;44.756;2023-03-13T08:08:28;101646.38;;;9.89;40.57
75668;BME280;64266;48.798;44.756;2023-03-13T08:13:33;101674.66;;;10.09;40.36
75668;BME280;64266;48.798;44.756;2023-03-13T08:18:56;101657.34;;;9.86;38.54
75668;BME280;64266;48.798;44.756;2023-03-13T08:24:07;101544.66;;;9.13;40.68
75668;BME280;64266;48.798;44.756;2023-03-13T08:29:13;101612.91;;;9.39;44.29
75668;BME280;64266;48.798;44.756;2023-03-13T08:34:30;101591.72;;;9.39;42.76
75668;BME280;64266;48.798;44.756;2023-03-13T08:39:44;101682.22;;;10.06;41.29
75668;BME280;64266;48.798;44.756;2023-03-13T08:45:06;101605.31;;;9.57;41.08
75668;BME280;64266;48.798;44.756;2023-03-13T08:50:31;101685.09;;;10.11;38.93
75668;BME280;64266;48.798;44.756;2023-03-13T08:56:10;101697.84;;;10.22;39.39
75668;BME280;64266;48.798;44.756;2023-03-13T09:02:57;101695.63;;;10.25;39.90
75668;BME280;64266;48.798;44.756;2023-03-13T09:08:04;101622.72;;;9.87;39.29
75668;BME280;64266;48.798;44.756;2023-03-13T09:13:11;101603.00;;;9.68;38.64
75668;BME280;64266;48.798;44.756;2023-03-13T09:18:17;101709.22;;;10.16;38.87
75668;BME280;64266;48.798;44.756;2023-03-13T09:23:35;101695.13;;;10.15;38.63
75668;BME280;64266;48.798;44.756;2023-03-13T09:28:40;101710.53;;;10.54;38.04
75668;BME280;64266;48.798;44.756;2023-03-13T09:33:47;101688.88;;;10.51;39.37
75668;BME280;64266;48.798;44.756;2023-03-13T09:38:53;101634.06;;;10.02;39.58
75668;BME280;64266;48.798;44.756;2023-03-13T09:44:23;101721.72;;;10.50;40.06
75668;BME280;64266;48.798;44.756;2023-03-13T09:49:41;101704.41;;;10.54;39.19
75668;BME280;64266;48.798;44.756;2023-03-13T09:55:04;101721.19;;;10.61;39.17
75668;BME280;64266;48.798;44.756;2023-03-13T10:00:17;101719.69;;;10.79;39.46
75668;BME280;64266;48.798;44.756;2023-03-13T10:05:27;101687.09;;;10.58;38.48
75668;BME280;64266;48.798;44.756;2023-03-13T10:10:42;101714.78;;;10.83;38.80
75668;BME280;64266;48.798;44.756;2023-03-13T10:15:55;101730.38;;;10.93;40.33
75668;BME280;64266;48.798;44.756;2023-03-13T10:21:20;101718.91;;;10.85;39.02
75668;BME280;64266;48.798;44.756;2023-03-13T10:26:28;101654.38;;;10.44;38.69
75668;BME280;64266;48.798;44.756;2023-03-13T10:31:33;101697.56;;;10.66;37.09
75668;BME280;64266;48.798;44.756;2023-03-13T10:36:58;101724.75;;;10.74;38.75
75668;BME280;64266;48.798;44.756;2023-03-13T10:42:15;101741.31;;;10.83;38.01
75668;BME280;64266;48.798;44.756;2023-03-13T10:47:21;101726.91;;;10.64;38.29
75668;BME280;64266;48.798;44.756;2023-03-13T10:52:46;101745.97;;;10.74;39.03
75668;BME280;64266;48.798;44.756;2023-03-13T10:58:20;101757.94;;;10.64;38.96
75668;BME280;64266;48.798;44.756;2023-03-13T11:03:30;101768.22;;;10.73;38.39
75668;BME280;64266;48.798;44.756;2023-03-13T11:08:36;101788.81;;;10.71;37.35
75668;BME280;64266;48.798;44.756;2023-03-13T11:13:40;101781.94;;;10.56;38.45
75668;BME280;64266;48.798;44.756;2023-03-13T11:24:10;101811.13;;;10.56;38.12
75668;BME280;64266;48.798;44.756;2023-03-13T11:29:27;101804.66;;;10.65;37.84
75668;BME280;64266;48.798;44.756;2023-03-13T11:34:43;101821.22;;;10.67;38.41
75668;BME280;64266;48.798;44.756;2023-03-13T11:51:01;101813.72;;;10.70;37.66
75668;BME280;64266;48.798;44.756;2023-03-13T12:01:23;101822.19;;;10.38;37.54
75668;BME280;64266;48.798;44.756;2023-03-13T12:06:35;101842.50;;;10.31;37.80
75668;BME280;64266;48.798;44.756;2023-03-13T12:11:56;101834.47;;;10.24;39.26
75668;BME280;64266;48.798;44.756;2023-03-13T12:17:11;101855.34;;;10.49;37.63
75668;BME280;64266;48.798;44.756;2023-03-13T12:22:22;101795.91;;;10.22;37.27
75668;BME280;64266;48.798;44.756;2023-03-13T12:27:38;101853.75;;;10.75;37.95
75668;BME280;64266;48.798;44.756;2023-03-13T12:32:57;101850.19;;;10.68;37.01
75668;BME280;64266;48.798;44.756;2023-03-13T12:38:25;101870.53;;;10.82;36.96
75668;BME280;64266;48.798;44.756;2023-03-13T12:43:32;101844.00;;;10.61;36.75
75668;BME280;64266;48.798;44.756;2023-03-13T12:59:43;101863.41;;;10.19;37.53
75668;BME280;64266;48.798;44.756;2023-03-13T13:04:52;101872.91;;;10.14;38.20
75668;BME280;64266;48.798;44.756;2023-03-13T13:10:13;101881.75;;;10.06;37.80
75668;BME280;64266;48.798;44.756;2023-03-13T13:15:27;101912.31;;;10.02;37.86
75668;BME280;64266;48.798;44.756;2023-03-13T13:20:34;101911.47;;;10.02;38.19
75668;BME280;64266;48.798;44.756;2023-03-13T13:25:38;101890.22;;;9.80;38.90
75668;BME280;64266;48.798;44.756;2023-03-13T13:30:44;101868.31;;;9.43;39.33
75668;BME280;64266;48.798;44.756;2023-03-13T13:41:26;101926.75;;;9.56;40.55
75668;BME280;64266;48.798;44.756;2023-03-13T13:46:35;101921.47;;;9.41;40.27
75668;BME280;64266;48.798;44.756;2023-03-13T13:51:40;101927.91;;;9.39;41.27
75668;BME280;64266;48.798;44.756;2023-03-13T13:56:48;101915.50;;;9.24;40.92
75668;BME280;64266;48.798;44.756;2023-03-13T14:02:15;101970.22;;;9.47;41.43
75668;BME280;64266;48.798;44.756;2023-03-13T14:12:37;101953.78;;;9.14;40.57
75668;BME280;64266;48.798;44.756;2023-03-13T14:17:54;101986.31;;;9.22;40.06
75668;BME280;64266;48.798;44.756;2023-03-13T14:23:10;102004.41;;;9.11;40.47
75668;BME280;64266;48.798;44.756;2023-03-13T14:33:19;102012.31;;;8.96;42.05
75668;BME280;64266;48.798;44.756;2023-03-13T14:38:27;102014.66;;;8.91;41.94
75668;BME280;64266;48.798;44.756;2023-03-13T14:43:39;102024.69;;;8.96;41.79
75668;BME280;64266;48.798;44.756;2023-03-13T14:48:42;102005.13;;;8.82;41.49
75668;BME280;64266;48.798;44.756;2023-03-13T14:53:59;101996.38;;;8.51;41.46
75668;BME280;64266;48.798;44.756;2023-03-13T14:59:23;102025.47;;;8.51;41.16
75668;BME280;64266;48.798;44.756;2023-03-13T15:04:47;102074.97;;;8.65;42.29
75668;BME280;64266;48.798;44.756;2023-03-13T15:09:51;102053.56;;;8.44;42.28
75668;BME280;64266;48.798;44.756;2023-03-13T15:14:55;102089.09;;;8.41;43.34
75668;BME280;64266;48.798;44.756;2023-03-13T15:19:58;102103.00;;;8.35;44.20
75668;BME280;64266;48.798;44.756;2023-03-13T15:25:01;102105.50;;;8.21;43.99
75668;BME280;64266;48.798;44.756;2023-03-13T15:30:14;102096.13;;;8.02;44.78
75668;BME280;64266;48.798;44.756;2023-03-13T15:35:27;102136.06;;;8.07;44.29
75668;BME280;64266;48.798;44.756;2023-03-13T15:40:30;102131.78;;;7.90;43.84
75668;BME280;64266;48.798;44.756;2023-03-13T15:45:35;102160.66;;;8.07;45.46
75668;BME280;64266;48.798;44.756;2023-03-13T15:50:38;102165.47;;;7.96;45.40
75668;BME280;64266;48.798;44.756;2023-03-13T15:55:40;102160.34;;;7.86;46.24
75668;BME280;64266;48.798;44.756;2023-03-13T16:00:45;102178.50;;;7.81;46.25
75668;BME280;64266;48.798;44.756;2023-03-13T16:05:52;102149.59;;;7.63;46.15
75668;BME280;64266;48.798;44.756;2023-03-13T16:10:55;102196.00;;;7.90;45.69
75668;BME280;64266;48.798;44.756;2023-03-13T16:15:58;102196.16;;;7.81;45.57
75668;BME280;64266;48.798;44.756;2023-03-13T16:21:01;102212.19;;;7.87;45.33
75668;BME280;64266;48.798;44.756;2023-03-13T16:26:07;102217.44;;;7.71;46.37
75668;BME280;64266;48.798;44.756;2023-03-13T16:31:20;102180.75;;;7.44;46.57
75668;BME280;64266;48.798;44.756;2023-03-13T16:36:26;102223.84;;;7.52;45.36
75668;BME280;64266;48.798;44.756;2023-03-13T16:41:32;102224.28;;;7.40;46.93
75668;BME280;64266;48.798;44.756;2023-03-13T16:46:37;102209.22;;;7.24;47.03
75668;BME280;64266;48.798;44.756;2023-03-13T16:51:41;102196.47;;;7.03;46.63
75668;BME280;64266;48.798;44.756;2023-03-13T16:56:43;102213.44;;;7.01;46.32
75668;BME280;64266;48.798;44.756;2023-03-13T17:01:46;102221.84;;;7.04;47.69
75668;BME280;64266;48.798;44.756;2023-03-13T17:06:48;102194.34;;;6.73;47.42
75668;BME280;64266;48.798;44.756;2023-03-13T17:11:52;102219.41;;;6.77;46.96
75668;BME280;64266;48.798;44.756;2023-03-13T17:16:55;102230.44;;;6.73;48.21
75668;BME280;64266;48.798;44.756;2023-03-13T17:21:59;102247.38;;;6.70;48.52
75668;BME280;64266;48.798;44.756;2023-03-13T17:27:03;102240.28;;;6.71;47.85
75668;BME280;64266;48.798;44.756;2023-03-13T17:32:07;102266.63;;;6.71;48.09
75668;BME280;64266;48.798;44.756;2023-03-13T17:37:14;102260.50;;;6.62;48.15
75668;BME280;64266;48.798;44.756;2023-03-13T17:42:17;102222.69;;;6.28;47.60
75668;BME280;64266;48.798;44.756;2023-03-13T17:47:21;102256.63;;;6.31;47.96
75668;BME280;64266;48.798;44.756;2023-03-13T17:52:25;102284.25;;;6.44;48.50
75668;BME280;64266;48.798;44.756;2023-03-13T17:57:27;102253.28;;;6.21;47.92
75668;BME280;64266;48.798;44.756;2023-03-13T18:02:30;102276.38;;;6.27;48.94
75668;BME280;64266;48.798;44.756;2023-03-13T18:07:33;102273.00;;;6.17;48.24
75668;BME280;64266;48.798;44.756;2023-03-13T18:12:36;102275.78;;;6.15;47.94
75668;BME280;64266;48.798;44.756;2023-03-13T18:17:39;102300.59;;;6.13;48.46
75668;BME280;64266;48.798;44.756;2023-03-13T18:22:42;102300.47;;;5.96;48.59
75668;BME280;64266;48.798;44.756;2023-03-13T18:27:44;102281.97;;;5.79;49.51
75668;BME280;64266;48.798;44.756;2023-03-13T18:32:47;102307.84;;;5.83;49.13
75668;BME280;64266;48.798;44.756;2023-03-13T18:37:50;102340.25;;;5.93;49.68
75668;BME280;64266;48.798;44.756;2023-03-13T18:42:53;102321.91;;;5.74;49.10
75668;BME280;64266;48.798;44.756;2023-03-13T18:47:55;102348.66;;;5.70;49.67
75668;BME280;64266;48.798;44.756;2023-03-13T18:52:58;102370.09;;;5.75;50.11
75668;BME280;64266;48.798;44.756;2023-03-13T18:58:01;102366.78;;;5.73;50.31
75668;BME280;64266;48.798;44.756;2023-03-13T19:03:03;102358.78;;;5.65;50.96
75668;BME280;64266;48.798;44.756;2023-03-13T19:08:08;102379.00;;;5.64;49.65
75668;BME280;64266;48.798;44.756;2023-03-13T19:13:10;102349.13;;;5.28;50.71
75668;BME280;64266;48.798;44.756;2023-03-13T19:18:13;102377.72;;;5.41;50.62
75668;BME280;64266;48.798;44.756;2023-03-13T19:23:15;102380.66;;;5.38;50.97
75668;BME280;64266;48.798;44.756;2023-03-13T19:28:18;102403.78;;;5.34;51.12
75668;BME280;64266;48.798;44.756;2023-03-13T19:33:21;102405.75;;;5.23;52.24
75668;BME280;64266;48.798;44.756;2023-03-13T19:38:24;102406.19;;;5.09;51.49
75668;BME280;64266;48.798;44.756;2023-03-13T19:43:27;102367.75;;;4.79;52.37
75668;BME280;64266;48.798;44.756;2023-03-13T19:48:30;102407.69;;;5.02;52.81
75668;BME280;64266;48.798;44.756;2023-03-13T19:53:32;102409.94;;;4.97;52.32
75668;BME280;64266;48.798;44.756;2023-03-13T19:58:36;102403.84;;;4.86;52.46
75668;BME280;64266;48.798;44.756;2023-03-13T20:03:39;102427.94;;;4.91;52.19
75668;BME280;64266;48.798;44.756;2023-03-13T20:08:43;102438.44;;;4.91;52.42
75668;BME280;64266;48.798;44.756;2023-03-13T20:13:46;102416.31;;;4.75;53.10
75668;BME280;64266;48.798;44.756;2023-03-13T20:18:50;102449.22;;;4.69;52.89
75668;BME280;64266;48.798;44.756;2023-03-13T20:23:53;102440.09;;;4.54;53.32
75668;BME280;64266;48.798;44.756;2023-03-13T20:28:56;102448.94;;;4.53;53.14
75668;BME280;64266;48.798;44.756;2023-03-13T20:33:59;102453.88;;;4.47;53.49
75668;BME280;64266;48.798;44.756;2023-03-13T20:39:02;102432.84;;;4.37;52.81
75668;BME280;64266;48.798;44.756;2023-03-13T20:44:07;102471.72;;;4.53;53.24
75668;BME280;64266;48.798;44.756;2023-03-13T20:49:11;102478.09;;;4.50;52.75
75668;BME280;64266;48.798;44.756;2023-03-13T20:54:14;102456.34;;;4.29;53.63
75668;BME280;64266;48.798;44.756;2023-03-13T20:59:17;102474.00;;;4.17;53.86
75668;BME280;64266;48.798;44.756;2023-03-13T21:04:20;102460.06;;;4.17;53.53
75668;BME280;64266;48.798;44.756;2023-03-13T21:09:23;102457.63;;;3.95;53.27
75668;BME280;64266;48.798;44.756;2023-03-13T21:14:26;102481.47;;;4.22;53.73
75668;BME280;64266;48.798;44.756;2023-03-13T21:19:29;102469.28;;;4.11;54.15
75668;BME280;64266;48.798;44.756;2023-03-13T21:24:31;102500.84;;;4.21;53.42
75668;BME280;64266;48.798;44.756;2023-03-13T21:29:33;102504.69;;;4.17;53.32
75668;BME280;64266;48.798;44.756;2023-03-13T21:34:37;102490.53;;;3.99;52.62
75668;BME280;64266;48.798;44.756;2023-03-13T21:39:39;102487.06;;;3.98;54.09
75668;BME280;64266;48.798;44.756;2023-03-13T21:44:44;102520.28;;;4.09;53.57
75668;BME280;64266;48.798;44.756;2023-03-13T21:49:47;102527.53;;;3.96;54.04
75668;BME280;64266;48.798;44.756;2023-03-13T21:54:50;102515.72;;;3.80;54.54
75668;BME280;64266;48.798;44.756;2023-03-13T21:59:52;102553.69;;;4.07;53.60
75668;BME280;64266;48.798;44.756;2023-03-13T22:04:55;102530.94;;;3.87;53.81
75668;BME280;64266;48.798;44.756;2023-03-13T22:09:59;102575.66;;;4.06;53.68
75668;BME280;64266;48.798;44.756;2023-03-13T22:15:04;102582.81;;;4.04;53.90
75668;BME280;64266;48.798;44.756;2023-03-13T22:20:07;102558.97;;;3.86;54.17
75668;BME280;64266;48.798;44.756;2023-03-13T22:25:11;102563.19;;;3.77;54.56
75668;BME280;64266;48.798;44.756;2023-03-13T22:30:14;102604.72;;;3.93;54.09
75668;BME280;64266;48.798;44.756;2023-03-13T22:35:17;102574.53;;;3.78;54.67
75668;BME280;64266;48.798;44.756;2023-03-13T22:40:20;102609.84;;;3.95;55.01
75668;BME280;64266;48.798;44.756;2023-03-13T22:45:23;102592.81;;;3.68;53.63
75668;BME280;64266;48.798;44.756;2023-03-13T22:50:26;102594.97;;;3.63;54.51
75668;BME280;64266;48.798;44.756;2023-03-13T22:55:31;102579.16;;;3.54;54.94
75668;BME280;64266;48.798;44.756;2023-03-13T23:00:34;102601.91;;;3.64;54.42
75668;BME280;64266;48.798;44.756;2023-03-13T23:05:40;102580.50;;;3.48;53.56
75668;BME280;64266;48.798;44.756;2023-03-13T23:10:45;102601.47;;;3.59;54.00
75668;BME280;64266;48.798;44.756;2023-03-13T23:15:48;102632.50;;;3.75;53.84
75668;BME280;64266;48.798;44.756;2023-03-13T23:21:03;102636.00;;;3.64;54.33
75668;BME280;64266;48.798;44.756;2023-03-13T23:26:10;102600.91;;;3.45;54.17
75668;BME280;64266;48.798;44.756;2023-03-13T23:31:20;102631.97;;;3.60;54.04
75668;BME280;64266;48.798;44.756;2023-03-13T23:36:23;102612.47;;;3.53;54.04
75668;BME280;64266;48.798;44.756;2023-03-13T23:41:27;102634.84;;;3.57;53.72
75668;BME280;64266;48.798;44.756;2023-03-13T23:46:30;102648.03;;;3.67;53.86
75668;BME280;64266;48.798;44.756;2023-03-13T23:51:32;102633.69;;;3.50;53.57
75668;BME280;64266;48.798;44.756;2023-03-13T23:56:35;102656.53;;;3.59;54.23
